sensor_id;sensor_type;location;lat;lon;timestamp;pressure;altitude;pressure_sealevel;temperature;humidity
17505;BME280;8870;50.950;11.762;2023-02-13T00:00:24;100597.22;;;5.39;100.00
17505;BME280;8870;50.950;11.762;2023-02-13T00:05:58;100596.41;;;5.37;100.00
17505;BME280;8870;50.950;11.762;2023-02-13T00:11:23;100594.06;;;5.31;100.00
17505;BME280;8870;50.950;11.762;2023-02-13T00:16:54;100596.72;;;5.31;100.00
17505;BME280;8870;50.950;11.762;2023-02-13T00:22:15;100598.50;;;5.30;100.00
17505;BME280;8870;50.950;11.762;2023-02-13T00:27:48;100593.25;;;5.29;100.00
17505;BME280;8870;50.950;11.762;2023-02-13T00:33:07;100596.72;;;5.31;100.00
17505;BME280;8870;50.950;11.762;2023-02-13T00:38:41;100594.97;;;5.30;100.00
17505;BME280;8870;50.950;11.762;2023-02-13T00:43:59;100592.31;;;5.30;100.00
17505;BME280;8870;50.950;11.762;2023-02-13T00:49:30;100594.97;;;5.30;100.00
17505;BME280;8870;50.950;11.762;2023-02-13T00:54:51;100596.81;;;5.29;100.00
17505;BME280;8870;50.950;11.762;2023-02-13T01:00:22;100602.16;;;5.29;100.00
17505;BME280;8870;50.950;11.762;2023-02-13T01:05:40;100604.81;;;5.29;100.00
17505;BME280;8870;50.950;11.762;2023-02-13T01:11:15;100594.19;;;5.28;100.00
17505;BME280;8870;50.950;11.762;2023-02-13T01:16:46;100591.50;;;5.28;100.00
17505;BME280;8870;50.950;11.762;2023-02-13T01:22:07;100608.44;;;5.28;100.00
17505;BME280;8870;50.950;11.762;2023-02-13T01:27:41;100600.41;;;5.28;100.00
17505;BME280;8870;50.950;11.762;2023-02-13T01:32:59;100597.88;;;5.25;100.00
17505;BME280;8870;50.950;11.762;2023-02-13T01:38:30;100595.34;;;5.22;100.00
17505;BME280;8870;50.950;11.762;2023-02-13T01:43:54;100589.44;;;5.15;100.00
17505;BME280;8870;50.950;11.762;2023-02-13T01:49:25;100592.91;;;5.17;100.00
17505;BME280;8870;50.950;11.762;2023-02-13T01:54:45;100593.75;;;5.18;100.00
17505;BME280;8870;50.950;11.762;2023-02-13T02:00:21;100587.47;;;5.19;100.00
17505;BME280;8870;50.950;11.762;2023-02-13T02:05:40;100584.78;;;5.19;100.00
17505;BME280;8870;50.950;11.762;2023-02-13T02:11:16;100581.34;;;5.17;100.00
17505;BME280;8870;50.950;11.762;2023-02-13T02:16:52;100575.03;;;5.18;100.00
17505;BME280;8870;50.950;11.762;2023-02-13T02:22:33;100574.28;;;5.16;100.00
17505;BME280;8870;50.950;11.762;2023-02-13T02:34:13;100563.59;;;5.16;100.00
17505;BME280;8870;50.950;11.762;2023-02-13T02:39:56;100550.22;;;5.16;100.00
17505;BME280;8870;50.950;11.762;2023-02-13T02:45:24;100556.56;;;5.13;100.00
17505;BME280;8870;50.950;11.762;2023-02-13T02:51:03;100550.44;;;5.11;100.00
17505;BME280;8870;50.950;11.762;2023-02-13T02:56:33;100536.13;;;5.12;100.00
17505;BME280;8870;50.950;11.762;2023-02-13T03:02:10;100529.06;;;5.11;100.00
17505;BME280;8870;50.950;11.762;2023-02-13T03:07:51;100535.50;;;5.07;100.00
17505;BME280;8870;50.950;11.762;2023-02-13T03:13:34;100537.38;;;5.05;100.00
17505;BME280;8870;50.950;11.762;2023-02-13T03:18:56;100537.59;;;5.00;100.00
17505;BME280;8870;50.950;11.762;2023-02-13T03:24:52;100542.09;;;5.00;100.00
17505;BME280;8870;50.950;11.762;2023-02-13T03:30:38;100546.63;;;4.98;100.00
17505;BME280;8870;50.950;11.762;2023-02-13T03:36:21;100561.84;;;4.96;100.00
17505;BME280;8870;50.950;11.762;2023-02-13T03:42:00;100560.56;;;4.85;100.00
17505;BME280;8870;50.950;11.762;2023-02-13T03:47:35;100556.22;;;4.83;100.00
17505;BME280;8870;50.950;11.762;2023-02-13T03:52:57;100556.28;;;4.81;100.00
17505;BME280;8870;50.950;11.762;2023-02-13T03:58:34;100560.13;;;4.75;100.00
17505;BME280;8870;50.950;11.762;2023-02-13T04:04:10;100559.41;;;4.72;100.00
17505;BME280;8870;50.950;11.762;2023-02-13T04:09:42;100551.66;;;4.66;100.00
17505;BME280;8870;50.950;11.762;2023-02-13T04:15:09;100543.84;;;4.61;100.00
17505;BME280;8870;50.950;11.762;2023-02-13T04:20:42;100538.22;;;4.48;100.00
17505;BME280;8870;50.950;11.762;2023-02-13T04:26:03;100541.91;;;4.45;100.00
17505;BME280;8870;50.950;11.762;2023-02-13T04:31:38;100541.66;;;4.31;100.00
17505;BME280;8870;50.950;11.762;2023-02-13T04:36:57;100541.72;;;4.29;100.00
17505;BME280;8870;50.950;11.762;2023-02-13T04:42:28;100541.31;;;4.18;100.00
17505;BME280;8870;50.950;11.762;2023-02-13T04:47:52;100545.22;;;4.11;100.00
17505;BME280;8870;50.950;11.762;2023-02-13T04:53:23;100540.28;;;4.01;100.00
17505;BME280;8870;50.950;11.762;2023-02-13T04:58:41;100545.75;;;3.98;100.00
17505;BME280;8870;50.950;11.762;2023-02-13T05:04:15;100541.47;;;3.94;100.00
17505;BME280;8870;50.950;11.762;2023-02-13T05:09:34;100545.09;;;3.93;100.00
17505;BME280;8870;50.950;11.762;2023-02-13T05:15:06;100541.88;;;3.85;100.00
17505;BME280;8870;50.950;11.762;2023-02-13T05:20:27;100548.13;;;3.84;100.00
17505;BME280;8870;50.950;11.762;2023-02-13T05:25:59;100543.88;;;3.80;100.00
17505;BME280;8870;50.950;11.762;2023-02-13T05:31:17;100551.19;;;3.75;100.00
17505;BME280;8870;50.950;11.762;2023-02-13T05:36:52;100547.72;;;3.73;100.00
17505;BME280;8870;50.950;11.762;2023-02-13T05:42:09;100556.72;;;3.70;100.00
17505;BME280;8870;50.950;11.762;2023-02-13T05:47:40;100556.00;;;3.66;100.00
17505;BME280;8870;50.950;11.762;2023-02-13T05:53:02;100562.13;;;3.68;100.00
17505;BME280;8870;50.950;11.762;2023-02-13T05:58:34;100573.78;;;3.66;100.00
17505;BME280;8870;50.950;11.762;2023-02-13T06:03:52;100564.09;;;3.63;100.00
17505;BME280;8870;50.950;11.762;2023-02-13T06:09:27;100577.63;;;3.59;100.00
17505;BME280;8870;50.950;11.762;2023-02-13T06:14:45;100571.50;;;3.57;100.00
17505;BME280;8870;50.950;11.762;2023-02-13T06:20:17;100579.56;;;3.55;100.00
17505;BME280;8870;50.950;11.762;2023-02-13T06:25:38;100580.56;;;3.52;100.00
17505;BME280;8870;50.950;11.762;2023-02-13T06:31:09;100589.50;;;3.51;100.00
17505;BME280;8870;50.950;11.762;2023-02-13T06:36:27;100589.69;;;3.47;100.00
17505;BME280;8870;50.950;11.762;2023-02-13T06:42:02;100601.38;;;3.43;100.00
17505;BME280;8870;50.950;11.762;2023-02-13T06:47:20;100608.69;;;3.37;100.00
17505;BME280;8870;50.950;11.762;2023-02-13T06:52:51;100607.19;;;3.30;100.00
17505;BME280;8870;50.950;11.762;2023-02-13T06:58:12;100604.53;;;3.30;100.00
17505;BME280;8870;50.950;11.762;2023-02-13T07:03:43;100608.13;;;3.29;100.00
17505;BME280;8870;50.950;11.762;2023-02-13T07:09:05;100611.03;;;3.23;100.00
17505;BME280;8870;50.950;11.762;2023-02-13T07:14:40;100603.28;;;3.17;100.00
17505;BME280;8870;50.950;11.762;2023-02-13T07:19:58;100603.53;;;3.11;100.00
17505;BME280;8870;50.950;11.762;2023-02-13T07:25:31;100599.31;;;3.05;100.00
17505;BME280;8870;50.950;11.762;2023-02-13T07:30:52;100598.78;;;2.95;100.00
17505;BME280;8870;50.950;11.762;2023-02-13T07:36:23;100600.00;;;2.86;100.00
17505;BME280;8870;50.950;11.762;2023-02-13T07:41:41;100603.84;;;2.79;100.00
17505;BME280;8870;50.950;11.762;2023-02-13T07:47:15;100618.28;;;2.72;100.00
17505;BME280;8870;50.950;11.762;2023-02-13T07:52:33;100626.66;;;2.61;100.00
17505;BME280;8870;50.950;11.762;2023-02-13T07:58:04;100624.19;;;2.56;100.00
17505;BME280;8870;50.950;11.762;2023-02-13T08:03:26;100632.34;;;2.52;100.00
17505;BME280;8870;50.950;11.762;2023-02-13T08:08:58;100638.63;;;2.49;100.00
17505;BME280;8870;50.950;11.762;2023-02-13T08:14:28;100641.53;;;2.41;100.00
17505;BME280;8870;50.950;11.762;2023-02-13T08:20:04;100643.19;;;2.45;100.00
17505;BME280;8870;50.950;11.762;2023-02-13T08:25:24;100643.41;;;2.39;100.00
17505;BME280;8870;50.950;11.762;2023-02-13T08:36:14;100653.38;;;2.58;100.00
17505;BME280;8870;50.950;11.762;2023-02-13T08:41:45;100655.97;;;2.59;100.00
17505;BME280;8870;50.950;11.762;2023-02-13T08:47:03;100656.88;;;2.60;100.00
17505;BME280;8870;50.950;11.762;2023-02-13T08:52:37;100662.66;;;2.71;100.00
17505;BME280;8870;50.950;11.762;2023-02-13T08:57:58;100655.50;;;2.73;100.00
17505;BME280;8870;50.950;11.762;2023-02-13T09:03:29;100647.53;;;2.73;100.00
17505;BME280;8870;50.950;11.762;2023-02-13T09:08:57;100657.72;;;2.86;100.00
17505;BME280;8870;50.950;11.762;2023-02-13T09:14:28;100648.75;;;2.88;100.00
17505;BME280;8870;50.950;11.762;2023-02-13T09:19:48;100647.66;;;2.94;100.00
17505;BME280;8870;50.950;11.762;2023-02-13T09:25:23;100639.31;;;3.03;100.00
17505;BME280;8870;50.950;11.762;2023-02-13T09:30:41;100643.34;;;3.14;100.00
17505;BME280;8870;50.950;11.762;2023-02-13T09:36:14;100643.06;;;3.21;100.00
17505;BME280;8870;50.950;11.762;2023-02-13T09:41:38;100647.28;;;3.27;100.00
17505;BME280;8870;50.950;11.762;2023-02-13T09:47:14;100646.91;;;3.36;100.00
17505;BME280;8870;50.950;11.762;2023-02-13T09:52:35;100644.22;;;3.38;100.00
17505;BME280;8870;50.950;11.762;2023-02-13T09:58:16;100646.78;;;3.39;100.00
17505;BME280;8870;50.950;11.762;2023-02-13T10:03:41;100636.78;;;3.46;100.00
17505;BME280;8870;50.950;11.762;2023-02-13T10:09:22;100642.91;;;3.48;100.00
17505;BME280;8870;50.950;11.762;2023-02-13T10:15:06;100632.59;;;3.61;100.00
17505;BME280;8870;50.950;11.762;2023-02-13T10:20:31;100629.31;;;3.77;100.00
17505;BME280;8870;50.950;11.762;2023-02-13T10:26:06;100632.53;;;3.85;100.00
17505;BME280;8870;50.950;11.762;2023-02-13T10:31:31;100625.75;;;3.98;100.00
17505;BME280;8870;50.950;11.762;2023-02-13T10:37:03;100620.31;;;4.01;100.00
17505;BME280;8870;50.950;11.762;2023-02-13T10:42:34;100605.44;;;4.16;100.00
17505;BME280;8870;50.950;11.762;2023-02-13T10:48:23;100589.34;;;4.18;100.00
17505;BME280;8870;50.950;11.762;2023-02-13T10:53:54;100586.16;;;4.30;100.00
17505;BME280;8870;50.950;11.762;2023-02-13T10:59:49;100576.94;;;4.38;100.00
17505;BME280;8870;50.950;11.762;2023-02-13T11:05:17;100567.84;;;4.42;100.00
17505;BME280;8870;50.950;11.762;2023-02-13T11:10:51;100549.97;;;4.44;100.00
17505;BME280;8870;50.950;11.762;2023-02-13T11:16:22;100545.09;;;4.54;100.00
17505;BME280;8870;50.950;11.762;2023-02-13T11:21:45;100550.94;;;4.62;100.00
17505;BME280;8870;50.950;11.762;2023-02-13T11:27:22;100539.31;;;4.63;100.00
17505;BME280;8870;50.950;11.762;2023-02-13T11:32:33;100535.28;;;4.73;100.00
17505;BME280;8870;50.950;11.762;2023-02-13T11:38:22;100537.91;;;4.75;100.00
17505;BME280;8870;50.950;11.762;2023-02-13T11:43:46;100529.59;;;4.81;100.00
17505;BME280;8870;50.950;11.762;2023-02-13T11:49:22;100534.78;;;4.84;100.00
17505;BME280;8870;50.950;11.762;2023-02-13T11:54:54;100527.94;;;4.98;100.00
17505;BME280;8870;50.950;11.762;2023-02-13T12:00:30;100524.25;;;4.81;100.00
17505;BME280;8870;50.950;11.762;2023-02-13T12:06:11;100516.44;;;4.96;100.00
17505;BME280;8870;50.950;11.762;2023-02-13T12:11:54;100512.47;;;5.04;100.00
17505;BME280;8870;50.950;11.762;2023-02-13T12:17:29;100500.38;;;5.15;100.00
17505;BME280;8870;50.950;11.762;2023-02-13T12:23:16;100490.25;;;5.21;100.00
17505;BME280;8870;50.950;11.762;2023-02-13T12:29:19;100488.34;;;5.23;100.00
17505;BME280;8870;50.950;11.762;2023-02-13T12:35:03;100495.56;;;5.40;100.00
17505;BME280;8870;50.950;11.762;2023-02-13T12:40:45;100490.59;;;5.50;100.00
17505;BME280;8870;50.950;11.762;2023-02-13T12:46:21;100489.97;;;5.63;100.00
17505;BME280;8870;50.950;11.762;2023-02-13T12:52:03;100474.72;;;5.65;100.00
17505;BME280;8870;50.950;11.762;2023-02-13T12:57:37;100467.34;;;5.70;100.00
17505;BME280;8870;50.950;11.762;2023-02-13T13:03:30;100476.66;;;5.79;100.00
17505;BME280;8870;50.950;11.762;2023-02-13T13:09:03;100462.06;;;5.86;100.00
17505;BME280;8870;50.950;11.762;2023-02-13T13:14:45;100462.41;;;5.96;100.00
17505;BME280;8870;50.950;11.762;2023-02-13T13:26:21;100445.66;;;6.10;100.00
17505;BME280;8870;50.950;11.762;2023-02-13T13:31:51;100441.81;;;6.15;100.00
17505;BME280;8870;50.950;11.762;2023-02-13T13:37:31;100436.78;;;6.25;100.00
17505;BME280;8870;50.950;11.762;2023-02-13T13:42:58;100427.50;;;6.32;100.00
17505;BME280;8870;50.950;11.762;2023-02-13T13:48:55;100431.00;;;6.33;100.00
17505;BME280;8870;50.950;11.762;2023-02-13T13:54:23;100418.53;;;6.50;100.00
17505;BME280;8870;50.950;11.762;2023-02-13T14:00:22;100418.88;;;6.75;100.00
17505;BME280;8870;50.950;11.762;2023-02-13T14:06:04;100401.22;;;6.87;100.00
17505;BME280;8870;50.950;11.762;2023-02-13T14:11:43;100397.72;;;7.01;100.00
17505;BME280;8870;50.950;11.762;2023-02-13T14:17:03;100394.59;;;7.09;100.00
17505;BME280;8870;50.950;11.762;2023-02-13T14:22:35;100392.78;;;7.09;100.00
17505;BME280;8870;50.950;11.762;2023-02-13T14:28:00;100388.88;;;7.15;100.00
17505;BME280;8870;50.950;11.762;2023-02-13T14:33:32;100386.03;;;7.33;100.00
17505;BME280;8870;50.950;11.762;2023-02-13T14:38:54;100381.97;;;7.70;100.00
17505;BME280;8870;50.950;11.762;2023-02-13T14:44:31;100369.91;;;8.07;100.00
17505;BME280;8870;50.950;11.762;2023-02-13T14:49:51;100366.13;;;8.38;100.00
17505;BME280;8870;50.950;11.762;2023-02-13T14:55:31;100363.34;;;8.54;100.00
17505;BME280;8870;50.950;11.762;2023-02-13T15:00:56;100360.06;;;8.91;100.00
17505;BME280;8870;50.950;11.762;2023-02-13T15:06:27;100351.06;;;9.05;100.00
17505;BME280;8870;50.950;11.762;2023-02-13T15:11:54;100348.75;;;9.26;100.00
17505;BME280;8870;50.950;11.762;2023-02-13T15:17:29;100337.66;;;9.31;100.00
17505;BME280;8870;50.950;11.762;2023-02-13T15:22:52;100344.03;;;9.55;100.00
17505;BME280;8870;50.950;11.762;2023-02-13T15:28:24;100348.75;;;9.65;100.00
17505;BME280;8870;50.950;11.762;2023-02-13T15:33:47;100349.84;;;9.62;100.00
17505;BME280;8870;50.950;11.762;2023-02-13T15:39:23;100339.47;;;9.30;100.00
17505;BME280;8870;50.950;11.762;2023-02-13T15:44:44;100339.25;;;9.20;100.00
17505;BME280;8870;50.950;11.762;2023-02-13T15:50:22;100331.13;;;8.94;100.00
17505;BME280;8870;50.950;11.762;2023-02-13T15:55:56;100328.94;;;8.74;100.00
17505;BME280;8870;50.950;11.762;2023-02-13T16:01:28;100335.19;;;8.60;100.00
17505;BME280;8870;50.950;11.762;2023-02-13T16:06:52;100344.25;;;8.44;100.00
17505;BME280;8870;50.950;11.762;2023-02-13T16:12:26;100323.13;;;8.11;100.00
17505;BME280;8870;50.950;11.762;2023-02-13T16:17:45;100304.16;;;7.85;100.00
17505;BME280;8870;50.950;11.762;2023-02-13T16:23:20;100316.91;;;7.67;100.00
17505;BME280;8870;50.950;11.762;2023-02-13T16:28:39;100319.13;;;7.46;100.00
17505;BME280;8870;50.950;11.762;2023-02-13T16:34:14;100314.38;;;7.20;100.00
17505;BME280;8870;50.950;11.762;2023-02-13T16:39:35;100311.38;;;6.96;100.00
17505;BME280;8870;50.950;11.762;2023-02-13T16:45:22;100317.41;;;6.69;100.00
17505;BME280;8870;50.950;11.762;2023-02-13T16:50:41;100322.38;;;6.45;100.00
17505;BME280;8870;50.950;11.762;2023-02-13T16:56:15;100336.00;;;6.24;100.00
17505;BME280;8870;50.950;11.762;2023-02-13T17:01:34;100340.53;;;5.90;100.00
17505;BME280;8870;50.950;11.762;2023-02-13T17:07:11;100348.94;;;5.66;100.00
17505;BME280;8870;50.950;11.762;2023-02-13T17:12:39;100356.13;;;5.48;100.00
17505;BME280;8870;50.950;11.762;2023-02-13T17:18:11;100373.28;;;5.27;100.00
17505;BME280;8870;50.950;11.762;2023-02-13T17:23:29;100373.78;;;5.17;100.00
17505;BME280;8870;50.950;11.762;2023-02-13T17:29:03;100389.56;;;5.04;100.00
17505;BME280;8870;50.950;11.762;2023-02-13T17:34:22;100377.06;;;4.87;100.00
17505;BME280;8870;50.950;11.762;2023-02-13T17:39:53;100383.94;;;4.74;100.00
17505;BME280;8870;50.950;11.762;2023-02-13T17:45:16;100394.72;;;4.53;100.00
17505;BME280;8870;50.950;11.762;2023-02-13T17:50:48;100401.28;;;4.46;100.00
17505;BME280;8870;50.950;11.762;2023-02-13T17:56:13;100392.28;;;4.29;100.00
17505;BME280;8870;50.950;11.762;2023-02-13T18:01:47;100399.19;;;4.14;100.00
17505;BME280;8870;50.950;11.762;2023-02-13T18:07:08;100412.16;;;4.03;100.00
17505;BME280;8870;50.950;11.762;2023-02-13T18:12:40;100408.28;;;3.91;100.00
17505;BME280;8870;50.950;11.762;2023-02-13T18:18:03;100405.06;;;3.83;100.00
17505;BME280;8870;50.950;11.762;2023-02-13T18:23:37;100402.31;;;3.65;100.00
17505;BME280;8870;50.950;11.762;2023-02-13T18:28:55;100403.66;;;3.55;100.00
17505;BME280;8870;50.950;11.762;2023-02-13T18:34:28;100404.06;;;3.46;100.00
17505;BME280;8870;50.950;11.762;2023-02-13T18:39:47;100405.09;;;3.42;100.00
17505;BME280;8870;50.950;11.762;2023-02-13T18:45:19;100409.00;;;3.34;100.00
17505;BME280;8870;50.950;11.762;2023-02-13T18:50:40;100410.84;;;3.32;100.00
17505;BME280;8870;50.950;11.762;2023-02-13T18:56:12;100409.34;;;3.25;100.00
17505;BME280;8870;50.950;11.762;2023-02-13T19:01:31;100401.63;;;3.19;100.00
17505;BME280;8870;50.950;11.762;2023-02-13T19:07:04;100393.84;;;3.14;100.00
17505;BME280;8870;50.950;11.762;2023-02-13T19:12:29;100394.97;;;3.08;100.00
17505;BME280;8870;50.950;11.762;2023-02-13T19:18:00;100396.94;;;3.03;100.00
17505;BME280;8870;50.950;11.762;2023-02-13T19:23:22;100389.22;;;2.97;100.00
17505;BME280;8870;50.950;11.762;2023-02-13T19:28:54;100381.63;;;2.88;100.00
17505;BME280;8870;50.950;11.762;2023-02-13T19:34:13;100391.78;;;2.78;100.00
17505;BME280;8870;50.950;11.762;2023-02-13T19:39:46;100387.69;;;2.69;100.00
17505;BME280;8870;50.950;11.762;2023-02-13T19:45:05;100381.94;;;2.58;100.00
17505;BME280;8870;50.950;11.762;2023-02-13T19:50:38;100379.69;;;2.47;100.00
17505;BME280;8870;50.950;11.762;2023-02-13T19:56:02;100384.53;;;2.37;100.00
17505;BME280;8870;50.950;11.762;2023-02-13T20:01:34;100377.97;;;2.24;100.00
17505;BME280;8870;50.950;11.762;2023-02-13T20:06:52;100371.94;;;2.19;100.00
17505;BME280;8870;50.950;11.762;2023-02-13T20:12:25;100385.50;;;2.12;100.00
17505;BME280;8870;50.950;11.762;2023-02-13T20:17:44;100378.63;;;2.07;100.00
17505;BME280;8870;50.950;11.762;2023-02-13T20:23:15;100378.78;;;2.02;100.00
17505;BME280;8870;50.950;11.762;2023-02-13T20:28:37;100376.31;;;1.97;100.00
17505;BME280;8870;50.950;11.762;2023-02-13T20:34:09;100378.25;;;1.92;100.00
17505;BME280;8870;50.950;11.762;2023-02-13T20:39:29;100388.25;;;1.85;100.00
17505;BME280;8870;50.950;11.762;2023-02-13T20:45:04;100392.06;;;1.78;100.00
17505;BME280;8870;50.950;11.762;2023-02-13T20:50:36;100389.75;;;1.69;100.00
17505;BME280;8870;50.950;11.762;2023-02-13T20:56:00;100382.09;;;1.60;100.00
17505;BME280;8870;50.950;11.762;2023-02-13T21:01:37;100383.16;;;1.56;100.00
17505;BME280;8870;50.950;11.762;2023-02-13T21:06:56;100390.41;;;1.50;100.00
17505;BME280;8870;50.950;11.762;2023-02-13T21:12:30;100396.22;;;1.36;100.00
17505;BME280;8870;50.950;11.762;2023-02-13T21:17:51;100392.19;;;1.25;100.00
17505;BME280;8870;50.950;11.762;2023-02-13T21:23:24;100381.91;;;1.15;100.00
17505;BME280;8870;50.950;11.762;2023-02-13T21:28:43;100390.78;;;1.14;100.00
17505;BME280;8870;50.950;11.762;2023-02-13T21:34:21;100405.78;;;1.15;100.00
17505;BME280;8870;50.950;11.762;2023-02-13T21:39:40;100409.44;;;1.13;100.00
17505;BME280;8870;50.950;11.762;2023-02-13T21:45:12;100414.81;;;1.11;100.00
17505;BME280;8870;50.950;11.762;2023-02-13T21:50:33;100416.63;;;1.09;100.00
17505;BME280;8870;50.950;11.762;2023-02-13T21:56:07;100410.50;;;1.07;100.00
17505;BME280;8870;50.950;11.762;2023-02-13T22:01:30;100408.03;;;1.01;100.00
17505;BME280;8870;50.950;11.762;2023-02-13T22:07:08;100409.09;;;0.97;100.00
17505;BME280;8870;50.950;11.762;2023-02-13T22:12:33;100407.34;;;0.96;100.00
17505;BME280;8870;50.950;11.762;2023-02-13T22:18:04;100407.41;;;0.94;100.00
17505;BME280;8870;50.950;11.762;2023-02-13T22:23:25;100422.50;;;0.92;100.00
17505;BME280;8870;50.950;11.762;2023-02-13T22:28:58;100428.75;;;0.89;100.00
17505;BME280;8870;50.950;11.762;2023-02-13T22:34:17;100435.09;;;0.85;100.00
17505;BME280;8870;50.950;11.762;2023-02-13T22:39:51;100441.31;;;0.84;100.00
17505;BME280;8870;50.950;11.762;2023-02-13T22:45:10;100441.41;;;0.81;100.00
17505;BME280;8870;50.950;11.762;2023-02-13T22:50:41;100447.69;;;0.79;100.00
17505;BME280;8870;50.950;11.762;2023-02-13T22:56:02;100446.03;;;0.76;100.00
17505;BME280;8870;50.950;11.762;2023-02-13T23:01:34;100450.59;;;0.71;100.00
17505;BME280;8870;50.950;11.762;2023-02-13T23:06:52;100441.88;;;0.66;100.00
17505;BME280;8870;50.950;11.762;2023-02-13T23:12:26;100448.31;;;0.58;100.00
17505;BME280;8870;50.950;11.762;2023-02-13T23:18:03;100438.03;;;0.48;100.00
17505;BME280;8870;50.950;11.762;2023-02-13T23:23:34;100445.34;;;0.41;100.00
17505;BME280;8870;50.950;11.762;2023-02-13T23:29:09;100447.16;;;0.39;100.00
17505;BME280;8870;50.950;11.762;2023-02-13T23:34:27;100445.50;;;0.35;100.00
17505;BME280;8870;50.950;11.762;2023-02-13T23:39:59;100450.88;;;0.33;100.00
17505;BME280;8870;50.950;11.762;2023-02-13T23:45:37;100458.91;;;0.30;100.00
17505;BME280;8870;50.950;11.762;2023-02-13T23:51:11;100458.00;;;0.29;100.00
17505;BME280;8870;50.950;11.762;2023-02-13T23:56:29;100461.63;;;0.27;100.00
